Time;durP1;ratioP1;P1;durP2;ratioP2;P2;SDS_P1;SDS_P2;PMS_P1;PMS_P2;Temp;Humidity;BMP_temperature;BMP_pressure;BME280_temperature;BME280_humidity;BME280_pressure;Samples;Min_cycle;Max_cycle;Signal;HPM_P1;HPM_P2
2022/03/27 00:02:07;;;;;;;2.63;0.93;;;-0.50;99.90;;;;;;5003987;28;20046;-66
2022/03/27 00:04:34;;;;;;;5.35;0.93;;;-0.50;99.90;;;;;;5005171;28;20062;-65
2022/03/27 00:07:01;;;;;;;2.05;0.70;;;-0.60;99.90;;;;;;5002238;28;20662;-65
2022/03/27 00:09:28;;;;;;;2.13;0.63;;;-0.60;99.90;;;;;;5002313;28;20054;-65
2022/03/27 00:11:55;;;;;;;5.45;0.73;;;-0.70;99.90;;;;;;5004580;28;20136;-68
2022/03/27 00:14:22;;;;;;;1.35;0.55;;;-0.70;99.90;;;;;;5004704;28;20073;-66
2022/03/27 00:16:49;;;;;;;12.90;1.15;;;-0.80;99.90;;;;;;5005086;28;20136;-66
2022/03/27 00:19:16;;;;;;;6.13;1.15;;;-0.80;99.90;;;;;;5002822;28;20437;-66
2022/03/27 00:21:44;;;;;;;5.65;0.40;;;-0.80;99.90;;;;;;5001347;28;20165;-68
2022/03/27 00:24:11;;;;;;;2.63;0.80;;;-0.80;99.90;;;;;;4994271;28;20069;-66
2022/03/27 00:26:40;;;;;;;6.07;1.15;;;-0.90;99.90;;;;;;4995902;28;20077;-65
2022/03/27 00:29:08;;;;;;;2.47;0.85;;;-0.90;99.90;;;;;;4993195;28;20054;-66
2022/03/27 00:31:38;;;;;;;1.67;0.82;;;-0.90;99.90;;;;;;5002641;28;20159;-64
2022/03/27 00:34:06;;;;;;;2.55;0.73;;;-0.90;99.90;;;;;;5000932;28;20064;-65
2022/03/27 00:36:32;;;;;;;12.82;1.13;;;-1.00;99.90;;;;;;5004368;28;20078;-66
2022/03/27 00:38:59;;;;;;;4.80;1.38;;;-1.00;99.90;;;;;;5001312;28;20058;-67
2022/03/27 00:41:27;;;;;;;9.45;1.23;;;-1.10;99.90;;;;;;5002294;28;20050;-67
2022/03/27 00:43:54;;;;;;;12.82;1.63;;;-1.10;99.90;;;;;;5011951;28;20065;-65
2022/03/27 00:46:21;;;;;;;5.35;1.20;;;-1.10;99.90;;;;;;5002432;28;20140;-69
2022/03/27 00:48:48;;;;;;;7.90;1.77;;;-1.20;99.90;;;;;;5004448;28;20060;-66
2022/03/27 00:51:15;;;;;;;10.23;1.40;;;-1.20;99.90;;;;;;5002331;28;20440;-64
2022/03/27 00:53:42;;;;;;;11.55;1.30;;;-1.20;99.90;;;;;;5004254;28;20054;-65
2022/03/27 00:56:09;;;;;;;7.45;1.77;;;-1.20;99.90;;;;;;5003302;28;20635;-66
2022/03/27 00:58:36;;;;;;;7.97;1.83;;;-1.30;99.90;;;;;;5004518;28;20053;-66
2022/03/27 01:01:15;;;;;;;9.23;3.53;;;-1.30;99.90;;;;;;5001068;28;20046;-66
2022/03/27 01:03:43;;;;;;;7.25;1.70;;;-1.40;99.90;;;;;;5000130;28;20133;-68
2022/03/27 01:06:26;;;;;;;6.68;1.58;;;-1.40;99.90;;;;;;5014069;28;20161;-69
2022/03/27 01:11:39;;;;;;;10.90;1.42;;;-1.50;99.90;;;;;;5004349;28;20057;-66
2022/03/27 01:14:06;;;;;;;11.13;1.75;;;-1.50;99.90;;;;;;4999815;28;20141;-65
2022/03/27 01:16:38;;;;;;;12.45;5.50;;;-1.60;99.90;;;;;;4996744;28;20081;-64
2022/03/27 01:19:09;;;;;;;6.85;1.60;;;-1.60;99.90;;;;;;5005295;28;20381;-65
2022/03/27 01:21:38;;;;;;;11.05;1.95;;;-1.70;99.90;;;;;;5002070;28;20292;-66
2022/03/27 01:24:06;;;;;;;5.70;1.43;;;-1.70;99.90;;;;;;4991959;28;20463;-66
2022/03/27 01:26:34;;;;;;;7.78;1.45;;;-1.70;99.90;;;;;;5003148;28;20145;-64
2022/03/27 01:29:02;;;;;;;7.35;1.65;;;-1.70;99.90;;;;;;5001665;28;20161;-66
2022/03/27 01:31:29;;;;;;;11.10;2.35;;;-1.70;99.90;;;;;;5001642;28;20049;-66
2022/03/27 01:33:56;;;;;;;6.07;1.17;;;-1.80;99.90;;;;;;5002150;28;20053;-67
2022/03/27 01:36:25;;;;;;;8.02;2.22;;;-1.80;99.90;;;;;;5004241;28;20362;-65
2022/03/27 01:38:53;;;;;;;5.25;2.08;;;-1.80;99.90;;;;;;5003270;28;20053;-65
2022/03/27 01:41:21;;;;;;;7.28;2.15;;;-1.80;99.90;;;;;;4998338;28;20065;-67
2022/03/27 01:43:48;;;;;;;12.30;1.85;;;-1.90;99.90;;;;;;5011444;28;20136;-66
2022/03/27 01:46:15;;;;;;;12.30;1.95;;;-1.90;99.90;;;;;;5005418;28;20429;-64
2022/03/27 01:48:43;;;;;;;9.02;1.50;;;-1.90;99.90;;;;;;5004722;28;20479;-66
2022/03/27 01:51:10;;;;;;;11.32;4.57;;;-2.00;99.90;;;;;;5001038;28;20054;-65
2022/03/27 01:53:38;;;;;;;14.30;2.47;;;-2.00;99.90;;;;;;5002421;28;20160;-67
2022/03/27 01:56:07;;;;;;;8.55;2.08;;;-2.00;99.90;;;;;;4992074;28;20078;-64
2022/03/27 01:58:42;;;;;;;14.05;2.35;;;-2.10;99.90;;;;;;4995052;28;20428;-65
2022/03/27 02:01:09;;;;;;;11.23;3.47;;;-2.10;99.90;;;;;;4998398;28;20104;-65
2022/03/27 02:03:36;;;;;;;7.15;2.42;;;-2.10;99.90;;;;;;5010848;28;20065;-69
2022/03/27 02:06:06;;;;;;;5.85;1.83;;;-2.10;99.90;;;;;;4986604;28;20042;-67
2022/03/27 02:08:36;;;;;;;18.08;3.00;;;-2.20;99.90;;;;;;4999421;28;20077;-65
2022/03/27 02:11:03;;;;;;;10.60;2.75;;;-2.20;99.90;;;;;;5003640;28;20439;-68
2022/03/27 02:13:30;;;;;;;8.50;2.67;;;-2.20;99.90;;;;;;5000594;28;20046;-66
2022/03/27 02:15:58;;;;;;;11.93;2.60;;;-2.20;99.90;;;;;;5003373;28;20133;-65
2022/03/27 02:18:27;;;;;;;17.02;2.40;;;-2.20;99.90;;;;;;5002637;28;20042;-65
2022/03/27 02:20:54;;;;;;;12.63;3.00;;;-2.20;99.90;;;;;;5002939;28;20152;-65
2022/03/27 02:23:22;;;;;;;8.45;2.58;;;-2.20;99.90;;;;;;4995683;28;20065;-69
2022/03/27 02:25:50;;;;;;;10.25;2.13;;;-2.20;99.90;;;;;;5001372;28;20131;-64
2022/03/27 02:28:18;;;;;;;12.82;2.00;;;-2.10;99.90;;;;;;4999436;28;20137;-66
2022/03/27 02:30:45;;;;;;;4.95;2.50;;;-2.20;99.90;;;;;;5002980;28;20410;-65
2022/03/27 02:33:12;;;;;;;4.40;2.30;;;-2.10;99.90;;;;;;4999909;28;20077;-64
2022/03/27 02:35:39;;;;;;;11.30;2.83;;;-2.20;99.90;;;;;;5002915;28;20129;-66
2022/03/27 02:38:10;;;;;;;6.82;3.30;;;-2.20;99.90;;;;;;5000691;28;20788;-66
2022/03/27 02:40:42;;;;;;;15.00;3.08;;;-2.10;99.90;;;;;;5001864;28;20050;-65
2022/03/27 02:43:11;;;;;;;6.18;2.55;;;-2.10;99.90;;;;;;5008409;28;20046;-65
2022/03/27 02:45:39;;;;;;;16.60;2.95;;;-2.10;99.90;;;;;;5006315;28;20488;-64
2022/03/27 02:48:07;;;;;;;7.43;2.15;;;-2.10;99.90;;;;;;5002002;28;20154;-69
2022/03/27 02:50:37;;;;;;;7.95;2.10;;;-2.10;99.90;;;;;;5010855;28;20156;-65
2022/03/27 02:53:04;;;;;;;16.60;3.07;;;-2.00;99.90;;;;;;5001997;28;20128;-67
2022/03/27 02:55:31;;;;;;;9.10;2.85;;;-2.00;99.90;;;;;;4993490;28;20351;-65
2022/03/27 02:57:58;;;;;;;8.30;2.50;;;-2.00;99.90;;;;;;5003135;28;20055;-66
2022/03/27 03:00:25;;;;;;;11.07;3.10;;;-2.00;99.90;;;;;;5002335;28;20120;-66
2022/03/27 03:02:53;;;;;;;7.63;2.92;;;-2.00;99.90;;;;;;5003435;28;20756;-66
2022/03/27 03:05:21;;;;;;;6.53;2.67;;;-1.90;99.90;;;;;;5004231;28;20157;-66
2022/03/27 03:07:50;;;;;;;6.13;1.55;;;-1.90;99.90;;;;;;5005744;28;20065;-64
2022/03/27 03:10:17;;;;;;;9.57;2.17;;;-1.80;99.90;;;;;;5004599;28;20468;-65
2022/03/27 03:12:45;;;;;;;7.68;2.35;;;-1.80;99.90;;;;;;5016959;28;20137;-66
2022/03/27 03:15:12;;;;;;;9.98;2.80;;;-1.80;99.90;;;;;;5010949;28;20176;-66
2022/03/27 03:17:39;;;;;;;4.90;1.85;;;-1.70;99.90;;;;;;5006947;28;20404;-64
2022/03/27 03:20:07;;;;;;;4.40;2.08;;;-1.70;99.90;;;;;;5006018;28;20425;-64
2022/03/27 03:22:36;;;;;;;4.82;2.70;;;-1.70;99.90;;;;;;4995615;28;20058;-65
2022/03/27 03:25:03;;;;;;;3.83;1.33;;;-1.60;99.90;;;;;;5005631;28;20133;-63
2022/03/27 03:27:30;;;;;;;7.97;2.00;;;-1.70;99.90;;;;;;5003797;28;20108;-64
2022/03/27 03:29:58;;;;;;;6.55;1.70;;;-1.60;99.90;;;;;;5005331;28;20096;-66
2022/03/27 03:32:25;;;;;;;5.60;1.80;;;-1.60;99.90;;;;;;5005152;28;20057;-66
2022/03/27 03:34:53;;;;;;;6.57;2.28;;;-1.50;99.90;;;;;;5005088;28;20100;-67
2022/03/27 03:37:20;;;;;;;4.75;1.67;;;-1.50;99.90;;;;;;4993153;28;20054;-64
2022/03/27 03:39:47;;;;;;;3.78;1.92;;;-1.50;99.90;;;;;;5005303;28;20141;-64
2022/03/27 03:42:15;;;;;;;2.47;1.55;;;-1.50;99.90;;;;;;5004666;28;20096;-64
2022/03/27 03:44:43;;;;;;;6.05;2.10;;;-1.50;99.90;;;;;;5005404;28;20172;-64
2022/03/27 03:47:10;;;;;;;4.00;1.45;;;-1.40;99.90;;;;;;5003337;28;20822;-66
2022/03/27 03:49:38;;;;;;;1.50;1.00;;;-1.40;99.90;;;;;;5002063;28;20050;-65
2022/03/27 03:52:06;;;;;;;6.75;1.52;;;-1.40;99.90;;;;;;5005484;28;20066;-64
2022/03/27 03:54:35;;;;;;;4.00;1.20;;;-1.40;99.90;;;;;;4998383;28;20119;-65
2022/03/27 03:57:03;;;;;;;10.52;2.78;;;-1.30;99.90;;;;;;5004239;28;20081;-67
2022/03/27 03:59:33;;;;;;;6.53;2.20;;;-1.30;99.90;;;;;;5003753;28;20076;-65
2022/03/27 04:02:00;;;;;;;4.32;1.58;;;-1.30;99.90;;;;;;5004617;28;20052;-65
2022/03/27 04:04:28;;;;;;;3.78;1.38;;;-1.30;99.90;;;;;;4995863;28;20050;-64
2022/03/27 04:06:55;;;;;;;2.25;1.15;;;-1.30;99.90;;;;;;5003137;28;20073;-70
2022/03/27 04:09:22;;;;;;;3.30;1.58;;;-1.20;99.90;;;;;;4999423;28;20080;-65
2022/03/27 04:11:49;;;;;;;3.40;1.67;;;-1.20;99.90;;;;;;5005667;28;20049;-65
2022/03/27 04:14:16;;;;;;;9.02;1.33;;;-1.20;99.90;;;;;;5004883;28;20141;-65
2022/03/27 04:16:44;;;;;;;4.60;1.75;;;-1.20;99.90;;;;;;5003722;28;20038;-66
2022/03/27 04:19:12;;;;;;;4.35;1.55;;;-1.10;99.90;;;;;;5002870;28;20050;-65
2022/03/27 04:21:42;;;;;;;5.45;1.20;;;-1.10;99.90;;;;;;5003435;28;20057;-68
2022/03/27 04:24:10;;;;;;;11.80;3.42;;;-1.10;99.90;;;;;;5003674;28;20084;-68
2022/03/27 04:26:39;;;;;;;1.85;0.80;;;-1.10;99.90;;;;;;5003387;28;20137;-64
2022/03/27 04:29:06;;;;;;;4.10;1.00;;;-1.00;99.90;;;;;;5004327;28;20111;-66
2022/03/27 04:31:33;;;;;;;7.32;1.00;;;-1.00;99.90;;;;;;5003847;28;20716;-67
2022/03/27 04:34:00;;;;;;;2.58;1.08;;;-1.00;99.90;;;;;;4994087;28;20057;-64
2022/03/27 04:36:27;;;;;;;2.53;1.27;;;-1.00;99.90;;;;;;5003727;28;20374;-68
2022/03/27 04:38:55;;;;;;;4.28;1.40;;;-0.90;99.90;;;;;;5003952;28;20054;-66
2022/03/27 04:41:22;;;;;;;5.47;1.75;;;-0.90;99.90;;;;;;5001910;28;20053;-65
2022/03/27 04:43:49;;;;;;;4.80;1.45;;;-0.90;99.90;;;;;;5004548;28;20129;-64
2022/03/27 04:46:16;;;;;;;3.28;1.58;;;-0.90;99.90;;;;;;5003423;28;20038;-65
2022/03/27 04:48:45;;;;;;;2.97;1.10;;;-0.90;99.90;;;;;;5006783;28;20650;-65
2022/03/27 04:51:12;;;;;;;3.47;1.58;;;-0.80;99.90;;;;;;5000352;28;20180;-66
2022/03/27 04:53:39;;;;;;;3.08;0.90;;;-0.80;99.90;;;;;;5003840;28;20081;-70
2022/03/27 04:56:06;;;;;;;2.58;0.90;;;-0.70;99.90;;;;;;5005063;28;20443;-68
2022/03/27 04:58:34;;;;;;;3.00;0.70;;;-0.70;99.90;;;;;;5003822;28;20564;-68
2022/03/27 05:01:01;;;;;;;4.55;1.55;;;-0.70;99.90;;;;;;5003764;28;20060;-66
2022/03/27 05:03:28;;;;;;;6.57;1.50;;;-0.60;99.90;;;;;;5002016;28;20065;-65
2022/03/27 05:05:55;;;;;;;3.53;0.88;;;-0.60;99.90;;;;;;5003554;28;20157;-66
2022/03/27 05:08:22;;;;;;;1.70;1.25;;;-0.60;99.90;;;;;;5003202;28;20111;-67
2022/03/27 05:10:49;;;;;;;4.13;0.95;;;-0.50;99.90;;;;;;5007408;28;20256;-66
2022/03/27 05:13:17;;;;;;;2.08;0.70;;;-0.50;99.90;;;;;;5008547;28;20084;-64
2022/03/27 05:15:45;;;;;;;6.28;1.20;;;-0.50;99.90;;;;;;5000238;28;20153;-65
2022/03/27 05:18:12;;;;;;;4.78;0.60;;;-0.50;99.90;;;;;;5004109;28;20705;-64
2022/03/27 05:20:41;;;;;;;4.07;1.00;;;-0.50;99.90;;;;;;4995294;28;20050;-64
2022/03/27 05:23:09;;;;;;;2.00;0.40;;;-0.40;99.90;;;;;;5001728;28;20145;-65
2022/03/27 05:25:45;;;;;;;1.30;0.63;;;-0.40;99.90;;;;;;5002832;28;20054;-64
2022/03/27 05:28:14;;;;;;;1.63;1.50;;;-0.40;99.90;;;;;;5002478;28;20141;-65
2022/03/27 05:30:43;;;;;;;2.58;0.70;;;-0.30;99.90;;;;;;5003870;28;20396;-65
2022/03/27 05:33:10;;;;;;;1.60;0.80;;;-0.30;99.90;;;;;;4999272;28;20049;-69
2022/03/27 05:35:37;;;;;;;2.08;0.65;;;-0.30;99.90;;;;;;4998973;28;20177;-64
2022/03/27 05:38:05;;;;;;;2.20;1.05;;;-0.20;99.90;;;;;;5002042;28;20042;-66
2022/03/27 05:40:32;;;;;;;3.03;1.15;;;-0.10;99.90;;;;;;5002664;28;20064;-66
2022/03/27 05:42:59;;;;;;;2.90;0.85;;;-0.10;99.90;;;;;;4997766;28;20734;-63
2022/03/27 05:45:27;;;;;;;2.30;0.60;;;0.00;99.90;;;;;;4998542;28;20054;-65
2022/03/27 05:47:54;;;;;;;1.20;0.90;;;0.00;99.90;;;;;;5000449;28;20161;-67
2022/03/27 05:50:22;;;;;;;5.00;0.60;;;0.10;99.90;;;;;;5013523;28;20053;-65
2022/03/27 05:52:51;;;;;;;6.85;0.68;;;0.10;99.90;;;;;;5002762;28;20228;-64
2022/03/27 05:55:19;;;;;;;4.80;1.33;;;0.20;99.90;;;;;;5000012;28;20598;-65
2022/03/27 05:57:46;;;;;;;3.10;1.10;;;0.30;99.90;;;;;;5000073;28;20081;-65
2022/03/27 06:00:16;;;;;;;1.45;0.77;;;0.30;99.90;;;;;;4993044;28;20042;-64
2022/03/27 06:02:44;;;;;;;3.13;1.25;;;0.40;99.90;;;;;;5001760;28;20045;-66
2022/03/27 06:05:11;;;;;;;3.97;0.80;;;0.40;99.90;;;;;;5001589;28;20065;-66
2022/03/27 06:07:43;;;;;;;1.77;0.77;;;0.50;99.90;;;;;;5003453;28;20063;-63
2022/03/27 06:10:10;;;;;;;3.60;0.70;;;0.60;99.90;;;;;;4999098;28;20133;-67
2022/03/27 06:12:38;;;;;;;3.95;1.00;;;0.70;99.90;;;;;;5013030;28;20140;-63
2022/03/27 06:15:06;;;;;;;2.45;0.80;;;0.70;99.90;;;;;;5001895;28;20526;-65
2022/03/27 06:17:42;;;;;;;3.50;1.08;;;0.80;99.90;;;;;;4994797;28;20753;-67
2022/03/27 06:20:30;;;;;;;1.98;0.85;;;0.80;99.90;;;;;;4999889;28;20045;-66
2022/03/27 06:22:57;;;;;;;3.58;1.13;;;0.80;99.90;;;;;;5002152;28;20082;-64
2022/03/27 06:25:26;;;;;;;3.63;1.13;;;0.90;99.90;;;;;;4994482;28;20081;-64
2022/03/27 06:27:54;;;;;;;3.47;0.85;;;1.00;99.90;;;;;;5002491;28;20057;-64
2022/03/27 06:30:26;;;;;;;3.72;0.65;;;1.00;99.90;;;;;;5002465;28;20050;-65
2022/03/27 06:32:57;;;;;;;3.33;1.10;;;1.10;99.90;;;;;;5002237;28;20061;-64
2022/03/27 06:35:24;;;;;;;6.32;1.40;;;1.10;99.90;;;;;;5001284;28;20145;-65
2022/03/27 06:37:52;;;;;;;2.05;0.60;;;1.10;99.90;;;;;;5006713;28;20100;-65
2022/03/27 06:40:20;;;;;;;3.67;0.52;;;1.20;99.90;;;;;;5001663;28;20050;-64
2022/03/27 06:42:48;;;;;;;2.08;0.88;;;1.20;99.90;;;;;;4996923;28;20103;-64
2022/03/27 06:45:22;;;;;;;6.80;0.85;;;1.20;99.90;;;;;;5003108;28;20046;-65
2022/03/27 06:47:49;;;;;;;2.28;0.50;;;1.30;99.90;;;;;;5002954;28;20069;-67
2022/03/27 06:50:19;;;;;;;1.33;0.57;;;1.30;99.90;;;;;;5005828;28;20057;-65
2022/03/27 06:52:47;;;;;;;9.70;2.15;;;1.40;99.90;;;;;;5007018;28;20058;-65
2022/03/27 06:55:15;;;;;;;5.30;1.20;;;1.40;99.90;;;;;;5002079;28;20053;-67
2022/03/27 06:57:42;;;;;;;4.75;0.82;;;1.40;99.90;;;;;;5001748;28;20054;-65
2022/03/27 07:03:09;;;;;;;3.08;0.80;;;1.50;99.90;;;;;;5006807;28;20063;-67
2022/03/27 07:05:42;;;;;;;2.55;1.10;;;1.60;99.90;;;;;;4991059;28;20124;-70
2022/03/27 07:08:13;;;;;;;2.85;0.98;;;1.60;99.90;;;;;;5005755;28;20116;-65
2022/03/27 07:10:42;;;;;;;5.45;1.30;;;1.70;99.90;;;;;;5008113;28;20054;-64
2022/03/27 07:13:10;;;;;;;4.55;0.98;;;1.70;99.90;;;;;;5011925;28;20049;-65
2022/03/27 07:15:38;;;;;;;2.55;0.65;;;1.80;99.90;;;;;;5005705;28;20085;-66
2022/03/27 07:18:06;;;;;;;3.45;0.95;;;1.80;99.90;;;;;;5006305;28;20148;-64
2022/03/27 07:20:36;;;;;;;3.80;0.75;;;1.80;99.90;;;;;;5004615;28;20073;-67
2022/03/27 07:23:05;;;;;;;3.83;0.70;;;1.90;99.90;;;;;;5006687;28;20133;-63
2022/03/27 07:25:35;;;;;;;2.88;1.60;;;2.00;99.90;;;;;;5001772;28;20145;-65
2022/03/27 07:28:06;;;;;;;2.95;1.85;;;2.10;99.90;;;;;;4999026;28;20081;-64
2022/03/27 07:30:33;;;;;;;4.25;0.60;;;2.10;99.90;;;;;;5005336;28;20144;-66
2022/03/27 07:33:01;;;;;;;1.38;0.90;;;2.20;99.90;;;;;;5005331;28;20084;-68
2022/03/27 07:35:30;;;;;;;5.53;0.88;;;2.30;99.90;;;;;;5000401;28;20558;-65
2022/03/27 07:37:57;;;;;;;5.78;0.75;;;2.40;99.90;;;;;;5004483;28;20062;-67
2022/03/27 07:40:25;;;;;;;2.85;0.80;;;2.50;99.90;;;;;;5004936;28;20049;-64
2022/03/27 07:42:53;;;;;;;4.13;0.80;;;2.50;99.90;;;;;;5003818;28;20189;-65
2022/03/27 07:45:25;;;;;;;2.17;0.73;;;2.60;99.90;;;;;;5003652;28;20153;-64
2022/03/27 07:47:53;;;;;;;2.90;0.80;;;2.70;99.90;;;;;;5004661;28;20120;-66
2022/03/27 07:50:23;;;;;;;2.17;0.88;;;2.70;99.90;;;;;;5002429;28;20137;-65
2022/03/27 07:52:50;;;;;;;4.35;1.30;;;2.80;99.90;;;;;;5004842;28;20053;-64
2022/03/27 07:55:20;;;;;;;2.75;0.88;;;2.90;99.90;;;;;;5002231;28;20218;-66
2022/03/27 07:57:54;;;;;;;4.03;0.82;;;3.00;99.90;;;;;;5005332;28;20050;-64
2022/03/27 08:00:21;;;;;;;5.30;2.33;;;3.10;99.90;;;;;;5004793;28;20074;-68
2022/03/27 08:02:48;;;;;;;5.72;0.93;;;3.20;99.90;;;;;;5001536;28;20131;-63
2022/03/27 08:05:16;;;;;;;2.83;1.02;;;3.30;99.90;;;;;;5002328;28;20188;-65
2022/03/27 08:07:45;;;;;;;0.90;0.70;;;3.40;99.90;;;;;;5004570;28;20054;-65
2022/03/27 08:10:14;;;;;;;2.65;0.80;;;3.50;99.90;;;;;;5005516;28;20072;-64
2022/03/27 08:12:41;;;;;;;2.60;0.77;;;3.60;99.90;;;;;;5000371;28;20066;-65
2022/03/27 08:15:08;;;;;;;3.72;0.68;;;3.70;99.90;;;;;;4996785;28;20073;-65
2022/03/27 08:17:36;;;;;;;6.80;0.82;;;3.80;99.90;;;;;;5004854;28;20062;-66
2022/03/27 08:20:04;;;;;;;4.85;0.95;;;3.80;99.90;;;;;;5005076;28;20097;-64
2022/03/27 08:22:33;;;;;;;3.85;1.50;;;3.80;99.90;;;;;;5003591;28;20125;-65
2022/03/27 08:25:01;;;;;;;4.13;1.77;;;3.80;99.90;;;;;;5004242;28;20428;-65
2022/03/27 08:27:30;;;;;;;2.78;0.80;;;3.90;99.90;;;;;;4997498;28;20423;-63
2022/03/27 08:29:57;;;;;;;7.55;1.20;;;3.90;99.90;;;;;;5004378;28;20828;-65
2022/03/27 08:32:24;;;;;;;2.05;0.82;;;3.90;99.90;;;;;;5007262;28;20157;-65
2022/03/27 08:34:51;;;;;;;4.00;1.50;;;4.00;99.90;;;;;;5000419;28;20129;-65
2022/03/27 08:37:19;;;;;;;4.65;1.63;;;4.10;99.90;;;;;;5002031;28;20116;-65
2022/03/27 08:39:46;;;;;;;6.13;2.28;;;4.10;99.90;;;;;;5004220;28;20137;-64
2022/03/27 08:42:16;;;;;;;2.42;0.73;;;4.20;99.90;;;;;;5003126;28;20526;-65
2022/03/27 08:44:44;;;;;;;4.05;1.52;;;4.30;99.90;;;;;;5002810;28;20050;-67
2022/03/27 08:47:22;;;;;;;4.20;1.50;;;4.30;99.90;;;;;;4995653;28;20070;-66
2022/03/27 08:50:03;;;;;;;3.72;1.38;;;4.30;99.90;;;;;;5011395;28;20076;-65
2022/03/27 08:52:34;;;;;;;;;;;4.30;99.90;;;;;;4997239;28;20070;-65
2022/03/27 08:55:05;;;;;;;3.08;1.58;;;4.40;99.90;;;;;;4996371;28;19997;-68
2022/03/27 08:57:38;;;;;;;;;;;4.50;99.90;;;;;;4995156;28;20085;-64
2022/03/27 09:00:05;;;;;;;7.75;2.05;;;4.50;99.90;;;;;;5003478;28;19928;-67
2022/03/27 09:02:32;;;;;;;3.90;1.67;;;4.60;99.90;;;;;;5003588;28;20136;-67
2022/03/27 09:05:02;;;;;;;5.78;2.47;;;4.60;99.90;;;;;;5004672;28;20156;-63
2022/03/27 09:07:30;;;;;;;8.75;2.85;;;4.70;99.90;;;;;;5001363;28;20153;-65
2022/03/27 09:10:00;;;;;;;3.03;1.45;;;4.70;99.90;;;;;;5003241;28;20436;-64
2022/03/27 09:12:28;;;;;;;6.07;1.60;;;4.70;99.90;;;;;;5007864;28;20140;-65
2022/03/27 09:14:54;;;;;;;2.38;0.88;;;4.70;99.90;;;;;;5003604;28;20045;-66
2022/03/27 09:17:21;;;;;;;5.47;1.55;;;4.70;99.90;;;;;;5001927;28;20116;-65
2022/03/27 09:19:51;;;;;;;3.22;1.25;;;4.70;99.90;;;;;;5004967;28;20073;-64
2022/03/27 09:22:28;;;;;;;4.00;1.33;;;4.80;99.90;;;;;;5002530;28;20141;-70
2022/03/27 09:25:00;;;;;;;4.80;1.30;;;4.90;99.90;;;;;;4996662;28;20155;-66
2022/03/27 09:27:38;;;;;;;5.10;1.27;;;5.00;99.90;;;;;;5000570;28;20690;-64
2022/03/27 09:30:09;;;;;;;7.47;1.92;;;5.10;99.90;;;;;;4997469;28;20065;-64
2022/03/27 09:32:44;;;;;;;2.58;1.08;;;5.30;99.90;;;;;;5003734;28;20046;-65
2022/03/27 09:35:16;;;;;;;2.33;0.70;;;5.40;99.90;;;;;;4998443;28;20054;-66
2022/03/27 09:37:46;;;;;;;4.97;1.23;;;5.50;99.90;;;;;;5000182;28;20144;-69
2022/03/27 09:40:15;;;;;;;2.30;1.10;;;5.60;99.90;;;;;;4996478;28;20141;-69
2022/03/27 09:42:43;;;;;;;2.97;1.25;;;5.70;99.90;;;;;;4995443;28;20124;-67
2022/03/27 09:45:23;;;;;;;1.45;0.80;;;5.60;99.90;;;;;;5000024;28;20096;-65
2022/03/27 09:47:55;;;;;;;6.20;1.03;;;5.70;99.90;;;;;;5002942;28;21210;-63
2022/03/27 09:50:32;;;;;;;9.38;1.77;;;5.80;99.90;;;;;;5010469;28;20843;-65
2022/03/27 09:53:31;;;;;;;4.15;1.48;;;5.90;99.90;;;;;;4999427;28;20132;-64
2022/03/27 09:56:00;;;;;;;7.32;0.90;;;5.90;99.90;;;;;;4995662;28;20054;-70
2022/03/27 09:58:37;;;;;;;3.33;2.20;;;5.80;99.90;;;;;;5002725;28;20120;-65
2022/03/27 10:01:16;;;;;;;3.78;1.27;;;5.80;99.90;;;;;;5002867;28;20115;-64
2022/03/27 10:04:13;;;;;;;3.88;1.45;;;5.90;99.90;;;;;;5000016;28;20212;-66
2022/03/27 10:06:42;;;;;;;3.28;1.45;;;5.90;99.90;;;;;;4999471;28;20046;-64
2022/03/27 10:09:14;;;;;;;8.20;2.40;;;5.90;99.90;;;;;;4993024;28;20173;-67
2022/03/27 10:11:43;;;;;;;1.98;0.90;;;6.00;99.90;;;;;;5012976;28;20080;-69
2022/03/27 10:14:10;;;;;;;9.57;1.25;;;6.10;99.90;;;;;;5002323;28;20042;-65
2022/03/27 10:16:43;;;;;;;3.33;1.42;;;6.10;99.90;;;;;;5003143;28;20083;-66
2022/03/27 10:19:33;;;;;;;7.60;1.45;;;6.10;99.90;;;;;;5001121;28;20046;-66
2022/03/27 10:22:02;;;;;;;4.97;2.40;;;6.20;99.90;;;;;;5002640;28;20049;-68
2022/03/27 10:24:30;;;;;;;2.00;1.10;;;6.30;99.90;;;;;;4999832;28;20041;-64
2022/03/27 10:27:02;;;;;;;7.93;1.25;;;6.40;99.90;;;;;;5001810;28;20045;-70
2022/03/27 10:29:30;;;;;;;6.60;1.88;;;6.50;99.90;;;;;;5000906;28;20057;-65
2022/03/27 10:31:59;;;;;;;7.75;1.80;;;6.50;99.90;;;;;;5000606;28;20100;-66
2022/03/27 10:34:29;;;;;;;5.97;1.70;;;6.60;99.90;;;;;;5001828;28;20054;-67
2022/03/27 10:37:08;;;;;;;4.53;1.30;;;6.70;99.90;;;;;;4990129;28;20152;-70
2022/03/27 10:39:52;;;;;;;1.80;1.40;;;6.80;99.90;;;;;;4996718;28;20062;-64
2022/03/27 10:42:39;;;;;;;7.82;1.70;;;6.90;99.90;;;;;;5002222;28;20571;-64
2022/03/27 10:45:14;;;;;;;3.72;2.22;;;7.00;99.90;;;;;;5000154;28;20507;-68
2022/03/27 10:47:42;;;;;;;6.10;1.20;;;7.10;99.90;;;;;;5001145;28;20137;-65
2022/03/27 10:50:09;;;;;;;4.30;1.00;;;7.10;99.90;;;;;;5002431;28;20070;-64
2022/03/27 10:52:57;;;;;;;8.65;1.77;;;7.00;99.90;;;;;;4993580;28;20142;-67
2022/03/27 10:55:39;;;;;;;11.93;1.50;;;7.00;99.90;;;;;;5000481;28;20042;-65
2022/03/27 10:58:34;;;;;;;3.08;1.52;;;6.90;99.90;;;;;;5004583;28;20050;-68
2022/03/27 11:01:26;;;;;;;6.65;1.83;;;6.90;99.90;;;;;;5002541;28;20704;-67
2022/03/27 11:04:04;;;;;;;3.33;1.60;;;6.80;99.90;;;;;;4994637;28;20117;-66
2022/03/27 11:06:37;;;;;;;5.68;1.30;;;6.90;99.90;;;;;;4994723;28;20097;-65
2022/03/27 11:09:08;;;;;;;7.90;1.42;;;6.90;99.90;;;;;;4996908;28;20046;-65
2022/03/27 11:11:35;;;;;;;5.13;1.35;;;6.90;99.90;;;;;;5005510;28;20478;-67
2022/03/27 11:14:03;;;;;;;3.97;1.17;;;6.90;99.90;;;;;;5002109;28;20058;-66
2022/03/27 11:16:33;;;;;;;4.47;1.35;;;7.00;99.90;;;;;;5002618;28;20050;-64
2022/03/27 11:19:00;;;;;;;7.82;1.88;;;7.00;99.90;;;;;;5000771;28;20129;-66
2022/03/27 11:21:26;;;;;;;4.55;1.10;;;7.00;99.90;;;;;;4999713;28;20041;-64
2022/03/27 11:24:02;;;;;;;6.88;1.10;;;7.00;99.90;;;;;;5001983;28;20050;-64
2022/03/27 11:26:29;;;;;;;3.90;1.30;;;7.10;99.90;;;;;;5004644;28;20058;-69
2022/03/27 11:28:59;;;;;;;8.88;1.98;;;7.10;99.90;;;;;;5002007;28;20146;-68
2022/03/27 11:31:36;;;;;;;2.92;1.23;;;7.10;99.90;;;;;;5000763;28;20140;-66
2022/03/27 11:34:12;;;;;;;7.90;1.25;;;7.10;99.90;;;;;;5005882;28;20061;-66
2022/03/27 11:36:41;;;;;;;8.32;1.90;;;7.10;99.90;;;;;;5005589;28;20053;-65
2022/03/27 11:39:28;;;;;;;7.70;1.90;;;7.10;99.90;;;;;;5003481;28;20069;-67
2022/03/27 11:42:24;;;;;;;6.72;1.60;;;7.10;99.90;;;;;;5006538;28;20153;-65
2022/03/27 11:45:16;;;;;;;4.38;1.60;;;7.10;99.90;;;;;;5003962;28;20112;-64
2022/03/27 11:47:51;;;;;;;3.72;1.20;;;7.10;99.90;;;;;;5003912;28;20057;-68
2022/03/27 11:50:32;;;;;;;5.25;1.27;;;7.20;99.90;;;;;;5006196;28;20360;-63
2022/03/27 11:53:00;;;;;;;5.18;1.15;;;7.20;99.90;;;;;;5005224;28;20049;-64
2022/03/27 11:55:29;;;;;;;5.07;1.98;;;7.20;99.90;;;;;;5002600;28;20056;-64
2022/03/27 11:57:58;;;;;;;6.43;1.35;;;7.30;99.90;;;;;;5005118;28;20108;-66
2022/03/27 12:00:31;;;;;;;4.88;1.58;;;7.30;99.90;;;;;;5005149;28;20081;-64
2022/03/27 12:02:59;;;;;;;4.43;1.13;;;7.30;99.90;;;;;;4999010;28;20056;-63
2022/03/27 12:05:37;;;;;;;7.72;1.83;;;7.40;99.90;;;;;;5004903;28;20051;-67
2022/03/27 12:08:06;;;;;;;7.30;3.67;;;7.60;99.90;;;;;;5007372;28;20054;-66
2022/03/27 12:11:06;;;;;;;3.75;1.38;;;7.70;99.90;;;;;;5005448;28;20053;-69
2022/03/27 12:13:42;;;;;;;7.80;1.70;;;7.60;99.90;;;;;;4996220;28;20573;-64
2022/03/27 12:16:21;;;;;;;17.42;2.30;;;7.70;99.90;;;;;;5004636;28;20100;-66
2022/03/27 12:18:48;;;;;;;11.57;1.63;;;7.60;99.90;;;;;;5003921;28;20050;-64
2022/03/27 12:21:23;;;;;;;11.80;2.90;;;7.60;99.90;;;;;;4992803;28;20140;-64
2022/03/27 12:23:55;;;;;;;9.43;1.52;;;7.60;99.90;;;;;;4991917;28;20499;-65
2022/03/27 12:32:02;;;;;;;6.68;1.17;;;7.80;99.90;;;;;;5004301;28;20050;-67
2022/03/27 12:34:30;;;;;;;3.50;1.17;;;7.80;99.90;;;;;;5002856;28;20058;-67
2022/03/27 12:37:16;;;;;;;13.85;2.50;;;8.00;99.90;;;;;;5003987;28;20053;-69
2022/03/27 12:40:05;;;;;;;3.90;1.38;;;8.20;99.90;;;;;;5002147;28;20084;-66
2022/03/27 12:42:46;;;;;;;7.55;2.17;;;8.00;99.90;;;;;;5003027;28;20065;-65
2022/03/27 12:45:27;;;;;;;9.63;1.30;;;8.00;99.90;;;;;;5001109;28;20058;-65
2022/03/27 12:47:58;;;;;;;5.97;1.05;;;8.00;99.90;;;;;;5004414;28;20152;-66
2022/03/27 12:50:25;;;;;;;9.00;2.40;;;7.80;99.90;;;;;;5005288;28;20045;-67
2022/03/27 12:53:11;;;;;;;11.95;1.65;;;7.80;99.90;;;;;;5002264;28;20061;-67
2022/03/27 12:55:41;;;;;;;2.95;1.40;;;7.70;99.90;;;;;;5001368;28;20420;-64
2022/03/27 12:58:08;;;;;;;7.18;2.60;;;7.70;99.90;;;;;;5003694;28;20131;-68
2022/03/27 13:00:40;;;;;;;6.25;1.55;;;7.60;99.90;;;;;;5003690;28;20164;-65
2022/03/27 13:03:22;;;;;;;4.05;1.00;;;7.70;99.90;;;;;;5003866;28;20061;-66
2022/03/27 13:05:58;;;;;;;3.97;1.65;;;7.70;99.90;;;;;;5000764;28;20661;-65
2022/03/27 13:08:34;;;;;;;4.90;1.35;;;7.80;99.90;;;;;;5003310;28;20124;-65
2022/03/27 13:11:07;;;;;;;4.68;1.25;;;7.90;99.90;;;;;;5008357;28;20115;-67
2022/03/27 13:13:45;;;;;;;6.35;1.63;;;8.10;99.90;;;;;;5003461;28;20535;-66
2022/03/27 13:16:32;;;;;;;3.08;1.00;;;8.10;99.90;;;;;;4993347;28;20066;-65
2022/03/27 13:19:10;;;;;;;10.15;2.10;;;8.10;99.90;;;;;;5001187;28;20068;-64
2022/03/27 13:21:40;;;;;;;10.27;1.45;;;8.10;99.90;;;;;;5000886;28;20554;-66